sensor_id;sensor_type;location;lat;lon;timestamp;temperature;humidity
21635;DHT22;10979;48.306;9.830;2022-08-21T00:01:39;13.60;99.90
21635;DHT22;10979;48.306;9.830;2022-08-21T00:04:08;13.50;99.90
21635;DHT22;10979;48.306;9.830;2022-08-21T00:06:35;13.50;99.90
21635;DHT22;10979;48.306;9.830;2022-08-21T00:09:03;13.30;99.90
21635;DHT22;10979;48.306;9.830;2022-08-21T00:11:28;13.20;99.90
21635;DHT22;10979;48.306;9.830;2022-08-21T00:13:54;13.10;99.90
21635;DHT22;10979;48.306;9.830;2022-08-21T00:16:20;13.10;99.90
21635;DHT22;10979;48.306;9.830;2022-08-21T00:18:46;13.00;99.90
21635;DHT22;10979;48.306;9.830;2022-08-21T00:21:13;13.00;99.90
21635;DHT22;10979;48.306;9.830;2022-08-21T00:23:39;12.90;99.90
21635;DHT22;10979;48.306;9.830;2022-08-21T00:26:05;12.90;99.90
21635;DHT22;10979;48.306;9.830;2022-08-21T00:28:31;13.00;99.90
21635;DHT22;10979;48.306;9.830;2022-08-21T00:30:57;12.80;99.90
21635;DHT22;10979;48.306;9.830;2022-08-21T00:33:24;12.90;99.90
21635;DHT22;10979;48.306;9.830;2022-08-21T00:35:50;12.80;99.90
21635;DHT22;10979;48.306;9.830;2022-08-21T00:38:16;12.80;99.90
21635;DHT22;10979;48.306;9.830;2022-08-21T00:40:46;12.70;99.90
21635;DHT22;10979;48.306;9.830;2022-08-21T00:43:15;12.60;99.90
21635;DHT22;10979;48.306;9.830;2022-08-21T00:45:41;12.60;99.90
21635;DHT22;10979;48.306;9.830;2022-08-21T00:48:07;12.70;99.90
21635;DHT22;10979;48.306;9.830;2022-08-21T00:50:44;12.70;99.90
21635;DHT22;10979;48.306;9.830;2022-08-21T00:53:11;12.70;99.90
21635;DHT22;10979;48.306;9.830;2022-08-21T00:55:38;12.60;99.90
21635;DHT22;10979;48.306;9.830;2022-08-21T00:58:07;12.60;99.90
21635;DHT22;10979;48.306;9.830;2022-08-21T01:00:36;12.40;99.90
21635;DHT22;10979;48.306;9.830;2022-08-21T01:03:11;12.40;99.90
21635;DHT22;10979;48.306;9.830;2022-08-21T01:05:36;12.40;99.90
21635;DHT22;10979;48.306;9.830;2022-08-21T01:08:03;12.30;99.90
21635;DHT22;10979;48.306;9.830;2022-08-21T01:10:30;12.30;99.90
21635;DHT22;10979;48.306;9.830;2022-08-21T01:12:56;12.20;99.90
21635;DHT22;10979;48.306;9.830;2022-08-21T01:15:25;12.30;99.90
21635;DHT22;10979;48.306;9.830;2022-08-21T01:17:53;12.40;99.90
21635;DHT22;10979;48.306;9.830;2022-08-21T01:20:19;12.40;99.90
21635;DHT22;10979;48.306;9.830;2022-08-21T01:22:45;12.40;99.90
21635;DHT22;10979;48.306;9.830;2022-08-21T01:25:12;12.40;99.90
21635;DHT22;10979;48.306;9.830;2022-08-21T01:27:38;12.40;99.90
21635;DHT22;10979;48.306;9.830;2022-08-21T01:30:27;12.60;99.90
21635;DHT22;10979;48.306;9.830;2022-08-21T01:32:53;12.50;99.90
21635;DHT22;10979;48.306;9.830;2022-08-21T01:35:19;12.50;99.90
21635;DHT22;10979;48.306;9.830;2022-08-21T01:37:46;12.40;99.90
21635;DHT22;10979;48.306;9.830;2022-08-21T01:40:14;12.20;99.90
21635;DHT22;10979;48.306;9.830;2022-08-21T01:42:41;12.00;99.90
21635;DHT22;10979;48.306;9.830;2022-08-21T01:45:08;11.80;99.90
21635;DHT22;10979;48.306;9.830;2022-08-21T01:47:34;11.70;99.90
21635;DHT22;10979;48.306;9.830;2022-08-21T01:50:00;11.90;99.90
21635;DHT22;10979;48.306;9.830;2022-08-21T01:52:26;11.90;99.90
21635;DHT22;10979;48.306;9.830;2022-08-21T01:54:53;11.70;99.90
21635;DHT22;10979;48.306;9.830;2022-08-21T01:57:19;11.70;99.90
21635;DHT22;10979;48.306;9.830;2022-08-21T01:59:45;11.60;99.90
21635;DHT22;10979;48.306;9.830;2022-08-21T02:02:10;11.50;99.90
21635;DHT22;10979;48.306;9.830;2022-08-21T02:04:36;11.50;99.90
21635;DHT22;10979;48.306;9.830;2022-08-21T02:07:02;11.50;99.90
21635;DHT22;10979;48.306;9.830;2022-08-21T02:09:28;11.30;99.90
21635;DHT22;10979;48.306;9.830;2022-08-21T02:11:54;11.30;99.90
21635;DHT22;10979;48.306;9.830;2022-08-21T02:14:20;11.30;99.90
21635;DHT22;10979;48.306;9.830;2022-08-21T02:16:46;11.20;99.90
21635;DHT22;10979;48.306;9.830;2022-08-21T02:19:14;11.30;99.90
21635;DHT22;10979;48.306;9.830;2022-08-21T02:21:40;11.20;99.90
21635;DHT22;10979;48.306;9.830;2022-08-21T02:24:07;11.10;99.90
21635;DHT22;10979;48.306;9.830;2022-08-21T02:26:33;11.10;99.90
21635;DHT22;10979;48.306;9.830;2022-08-21T02:28:59;11.20;99.90
21635;DHT22;10979;48.306;9.830;2022-08-21T02:31:25;11.40;99.90
21635;DHT22;10979;48.306;9.830;2022-08-21T02:33:51;11.30;99.90
21635;DHT22;10979;48.306;9.830;2022-08-21T02:36:17;11.30;99.90
21635;DHT22;10979;48.306;9.830;2022-08-21T02:38:43;11.30;99.90
21635;DHT22;10979;48.306;9.830;2022-08-21T02:41:13;11.50;99.90
21635;DHT22;10979;48.306;9.830;2022-08-21T02:43:39;11.80;99.90
21635;DHT22;10979;48.306;9.830;2022-08-21T02:46:07;11.90;99.90
21635;DHT22;10979;48.306;9.830;2022-08-21T02:48:34;12.00;99.90
21635;DHT22;10979;48.306;9.830;2022-08-21T02:51:05;12.20;99.90
21635;DHT22;10979;48.306;9.830;2022-08-21T02:53:31;12.40;99.90
21635;DHT22;10979;48.306;9.830;2022-08-21T02:55:58;12.50;99.90
21635;DHT22;10979;48.306;9.830;2022-08-21T02:58:28;12.30;99.90
21635;DHT22;10979;48.306;9.830;2022-08-21T03:00:54;12.20;99.90
21635;DHT22;10979;48.306;9.830;2022-08-21T03:03:20;12.30;99.90
21635;DHT22;10979;48.306;9.830;2022-08-21T03:05:46;12.40;99.90
21635;DHT22;10979;48.306;9.830;2022-08-21T03:08:13;12.50;99.90
21635;DHT22;10979;48.306;9.830;2022-08-21T03:10:42;12.50;99.90
21635;DHT22;10979;48.306;9.830;2022-08-21T03:13:08;12.50;99.90
21635;DHT22;10979;48.306;9.830;2022-08-21T03:15:34;12.50;99.90
21635;DHT22;10979;48.306;9.830;2022-08-21T03:18:00;12.50;99.90
21635;DHT22;10979;48.306;9.830;2022-08-21T03:20:27;12.60;99.90
21635;DHT22;10979;48.306;9.830;2022-08-21T03:22:54;12.60;99.90
21635;DHT22;10979;48.306;9.830;2022-08-21T03:25:21;12.60;99.90
21635;DHT22;10979;48.306;9.830;2022-08-21T03:27:47;12.60;99.90
21635;DHT22;10979;48.306;9.830;2022-08-21T03:30:15;12.60;99.90
21635;DHT22;10979;48.306;9.830;2022-08-21T03:32:41;12.60;99.90
21635;DHT22;10979;48.306;9.830;2022-08-21T03:35:07;12.50;99.90
21635;DHT22;10979;48.306;9.830;2022-08-21T03:37:33;12.60;99.90
21635;DHT22;10979;48.306;9.830;2022-08-21T03:39:59;12.50;99.90
21635;DHT22;10979;48.306;9.830;2022-08-21T03:42:25;12.50;99.90
21635;DHT22;10979;48.306;9.830;2022-08-21T03:44:51;12.50;99.90
21635;DHT22;10979;48.306;9.830;2022-08-21T03:47:16;12.50;99.90
21635;DHT22;10979;48.306;9.830;2022-08-21T03:49:42;12.50;99.90
21635;DHT22;10979;48.306;9.830;2022-08-21T03:52:08;12.40;99.90
21635;DHT22;10979;48.306;9.830;2022-08-21T03:54:34;12.40;99.90
21635;DHT22;10979;48.306;9.830;2022-08-21T03:56:59;12.40;99.90
21635;DHT22;10979;48.306;9.830;2022-08-21T03:59:25;12.40;99.90
21635;DHT22;10979;48.306;9.830;2022-08-21T04:01:56;12.40;99.90
21635;DHT22;10979;48.306;9.830;2022-08-21T04:04:23;12.40;99.90
21635;DHT22;10979;48.306;9.830;2022-08-21T04:06:48;12.40;99.90
21635;DHT22;10979;48.306;9.830;2022-08-21T04:09:16;12.40;99.90
21635;DHT22;10979;48.306;9.830;2022-08-21T04:11:41;12.30;99.90
21635;DHT22;10979;48.306;9.830;2022-08-21T04:14:07;12.30;99.90
21635;DHT22;10979;48.306;9.830;2022-08-21T04:16:32;12.30;99.90
21635;DHT22;10979;48.306;9.830;2022-08-21T04:18:58;12.30;99.90
21635;DHT22;10979;48.306;9.830;2022-08-21T04:21:24;12.30;99.90
21635;DHT22;10979;48.306;9.830;2022-08-21T04:23:50;12.30;99.90
21635;DHT22;10979;48.306;9.830;2022-08-21T04:26:15;12.30;99.90
21635;DHT22;10979;48.306;9.830;2022-08-21T04:28:41;12.30;99.90
21635;DHT22;10979;48.306;9.830;2022-08-21T04:31:08;12.40;99.90
21635;DHT22;10979;48.306;9.830;2022-08-21T04:33:34;12.40;99.90
21635;DHT22;10979;48.306;9.830;2022-08-21T04:36:00;12.40;99.90
21635;DHT22;10979;48.306;9.830;2022-08-21T04:38:26;12.40;99.90
21635;DHT22;10979;48.306;9.830;2022-08-21T04:40:53;12.40;99.90
21635;DHT22;10979;48.306;9.830;2022-08-21T04:43:19;12.40;99.90
21635;DHT22;10979;48.306;9.830;2022-08-21T04:45:47;12.40;99.90
21635;DHT22;10979;48.306;9.830;2022-08-21T04:48:16;12.50;99.90
21635;DHT22;10979;48.306;9.830;2022-08-21T04:50:47;12.30;99.90
21635;DHT22;10979;48.306;9.830;2022-08-21T04:53:45;12.40;99.90
21635;DHT22;10979;48.306;9.830;2022-08-21T04:56:42;12.30;99.90
21635;DHT22;10979;48.306;9.830;2022-08-21T04:59:15;12.30;99.90
21635;DHT22;10979;48.306;9.830;2022-08-21T05:01:42;12.40;99.90
21635;DHT22;10979;48.306;9.830;2022-08-21T05:04:11;12.30;99.90
21635;DHT22;10979;48.306;9.830;2022-08-21T05:06:39;12.30;99.90
21635;DHT22;10979;48.306;9.830;2022-08-21T05:09:06;12.30;99.90
21635;DHT22;10979;48.306;9.830;2022-08-21T05:11:34;12.30;99.90
21635;DHT22;10979;48.306;9.830;2022-08-21T05:14:01;12.30;99.90
21635;DHT22;10979;48.306;9.830;2022-08-21T05:16:27;12.30;99.90
21635;DHT22;10979;48.306;9.830;2022-08-21T05:18:52;12.40;99.90
21635;DHT22;10979;48.306;9.830;2022-08-21T05:21:18;12.40;99.90
21635;DHT22;10979;48.306;9.830;2022-08-21T05:23:44;12.40;99.90
21635;DHT22;10979;48.306;9.830;2022-08-21T05:26:09;12.40;99.90
21635;DHT22;10979;48.306;9.830;2022-08-21T05:28:35;12.30;99.90
21635;DHT22;10979;48.306;9.830;2022-08-21T05:31:00;12.30;99.90
21635;DHT22;10979;48.306;9.830;2022-08-21T05:33:26;12.40;99.90
21635;DHT22;10979;48.306;9.830;2022-08-21T05:35:53;12.50;99.90
21635;DHT22;10979;48.306;9.830;2022-08-21T05:38:21;12.50;99.90
21635;DHT22;10979;48.306;9.830;2022-08-21T05:40:47;12.60;99.90
21635;DHT22;10979;48.306;9.830;2022-08-21T05:43:13;12.70;99.90
21635;DHT22;10979;48.306;9.830;2022-08-21T05:45:39;12.80;99.90
21635;DHT22;10979;48.306;9.830;2022-08-21T05:48:06;12.70;99.90
21635;DHT22;10979;48.306;9.830;2022-08-21T05:50:32;12.70;99.90
21635;DHT22;10979;48.306;9.830;2022-08-21T05:52:58;12.70;99.90
21635;DHT22;10979;48.306;9.830;2022-08-21T05:55:23;12.90;99.90
21635;DHT22;10979;48.306;9.830;2022-08-21T05:57:49;13.10;99.90
21635;DHT22;10979;48.306;9.830;2022-08-21T06:00:15;13.20;99.90
21635;DHT22;10979;48.306;9.830;2022-08-21T06:02:41;13.20;99.90
21635;DHT22;10979;48.306;9.830;2022-08-21T06:05:07;13.30;99.90
21635;DHT22;10979;48.306;9.830;2022-08-21T06:07:33;13.40;99.90
21635;DHT22;10979;48.306;9.830;2022-08-21T06:09:58;13.90;99.90
21635;DHT22;10979;48.306;9.830;2022-08-21T06:12:25;13.90;99.90
21635;DHT22;10979;48.306;9.830;2022-08-21T06:14:50;14.00;99.90
21635;DHT22;10979;48.306;9.830;2022-08-21T06:17:17;14.00;99.90
21635;DHT22;10979;48.306;9.830;2022-08-21T06:19:43;14.00;99.90
21635;DHT22;10979;48.306;9.830;2022-08-21T06:22:09;14.00;99.90
21635;DHT22;10979;48.306;9.830;2022-08-21T06:24:35;13.90;99.90
21635;DHT22;10979;48.306;9.830;2022-08-21T06:27:05;14.20;99.90
21635;DHT22;10979;48.306;9.830;2022-08-21T06:29:31;14.40;99.90
21635;DHT22;10979;48.306;9.830;2022-08-21T06:31:57;14.70;99.90
21635;DHT22;10979;48.306;9.830;2022-08-21T06:34:22;15.00;99.90
21635;DHT22;10979;48.306;9.830;2022-08-21T06:36:48;15.20;99.90
21635;DHT22;10979;48.306;9.830;2022-08-21T06:39:14;15.50;99.90
21635;DHT22;10979;48.306;9.830;2022-08-21T06:41:39;15.60;99.90
21635;DHT22;10979;48.306;9.830;2022-08-21T06:44:05;15.90;99.90
21635;DHT22;10979;48.306;9.830;2022-08-21T06:46:31;16.10;99.90
21635;DHT22;10979;48.306;9.830;2022-08-21T06:48:57;18.20;99.90
21635;DHT22;10979;48.306;9.830;2022-08-21T06:51:24;21.00;99.90
21635;DHT22;10979;48.306;9.830;2022-08-21T06:53:51;22.00;99.90
21635;DHT22;10979;48.306;9.830;2022-08-21T06:56:17;22.70;99.90
21635;DHT22;10979;48.306;9.830;2022-08-21T06:58:43;23.20;99.90
21635;DHT22;10979;48.306;9.830;2022-08-21T07:01:09;23.90;99.90
21635;DHT22;10979;48.306;9.830;2022-08-21T07:03:40;24.10;99.90
21635;DHT22;10979;48.306;9.830;2022-08-21T07:06:08;24.90;99.90
21635;DHT22;10979;48.306;9.830;2022-08-21T07:08:34;24.70;99.90
21635;DHT22;10979;48.306;9.830;2022-08-21T07:11:02;24.80;99.90
21635;DHT22;10979;48.306;9.830;2022-08-21T07:13:28;24.60;99.90
21635;DHT22;10979;48.306;9.830;2022-08-21T07:15:54;25.30;99.90
21635;DHT22;10979;48.306;9.830;2022-08-21T07:18:20;25.80;99.90
21635;DHT22;10979;48.306;9.830;2022-08-21T07:20:46;25.70;99.90
21635;DHT22;10979;48.306;9.830;2022-08-21T07:23:24;25.30;99.90
21635;DHT22;10979;48.306;9.830;2022-08-21T07:25:51;26.10;99.90
21635;DHT22;10979;48.306;9.830;2022-08-21T07:28:16;25.50;99.90
21635;DHT22;10979;48.306;9.830;2022-08-21T07:30:42;25.00;99.90
21635;DHT22;10979;48.306;9.830;2022-08-21T07:33:07;25.50;99.90
21635;DHT22;10979;48.306;9.830;2022-08-21T07:35:33;25.90;99.90
21635;DHT22;10979;48.306;9.830;2022-08-21T07:37:59;26.50;99.90
21635;DHT22;10979;48.306;9.830;2022-08-21T07:40:25;26.90;99.90
21635;DHT22;10979;48.306;9.830;2022-08-21T07:42:51;26.30;99.90
21635;DHT22;10979;48.306;9.830;2022-08-21T07:45:22;26.70;99.90
21635;DHT22;10979;48.306;9.830;2022-08-21T07:47:51;27.00;99.90
21635;DHT22;10979;48.306;9.830;2022-08-21T07:50:17;27.30;99.90
21635;DHT22;10979;48.306;9.830;2022-08-21T07:52:43;27.30;99.90
21635;DHT22;10979;48.306;9.830;2022-08-21T07:55:16;27.30;99.90
21635;DHT22;10979;48.306;9.830;2022-08-21T07:57:42;27.20;99.90
21635;DHT22;10979;48.306;9.830;2022-08-21T08:00:15;27.40;99.90
21635;DHT22;10979;48.306;9.830;2022-08-21T08:02:44;28.30;99.90
21635;DHT22;10979;48.306;9.830;2022-08-21T08:05:11;28.20;99.90
21635;DHT22;10979;48.306;9.830;2022-08-21T08:07:38;28.20;99.90
21635;DHT22;10979;48.306;9.830;2022-08-21T08:10:05;28.10;99.90
21635;DHT22;10979;48.306;9.830;2022-08-21T08:12:36;28.10;99.90
21635;DHT22;10979;48.306;9.830;2022-08-21T08:15:02;27.60;99.90
21635;DHT22;10979;48.306;9.830;2022-08-21T08:17:28;27.70;99.90
21635;DHT22;10979;48.306;9.830;2022-08-21T08:19:54;27.80;99.90
21635;DHT22;10979;48.306;9.830;2022-08-21T08:22:22;28.30;99.90
21635;DHT22;10979;48.306;9.830;2022-08-21T08:24:52;28.90;99.90
21635;DHT22;10979;48.306;9.830;2022-08-21T08:27:18;28.30;99.90
21635;DHT22;10979;48.306;9.830;2022-08-21T08:29:44;27.80;99.90
21635;DHT22;10979;48.306;9.830;2022-08-21T08:32:10;29.10;99.90
21635;DHT22;10979;48.306;9.830;2022-08-21T08:34:36;28.40;99.90
21635;DHT22;10979;48.306;9.830;2022-08-21T08:37:03;28.30;99.90
21635;DHT22;10979;48.306;9.830;2022-08-21T08:39:29;28.70;99.90
21635;DHT22;10979;48.306;9.830;2022-08-21T08:42:15;28.50;99.90
21635;DHT22;10979;48.306;9.830;2022-08-21T08:44:45;28.60;98.40
21635;DHT22;10979;48.306;9.830;2022-08-21T08:47:15;29.20;99.40
21635;DHT22;10979;48.306;9.830;2022-08-21T08:49:49;28.40;99.40
21635;DHT22;10979;48.306;9.830;2022-08-21T08:52:37;28.60;97.10
21635;DHT22;10979;48.306;9.830;2022-08-21T08:55:09;28.90;94.10
21635;DHT22;10979;48.306;9.830;2022-08-21T08:57:37;28.20;92.90
21635;DHT22;10979;48.306;9.830;2022-08-21T09:00:08;28.60;92.90
21635;DHT22;10979;48.306;9.830;2022-08-21T09:02:38;28.70;92.90
21635;DHT22;10979;48.306;9.830;2022-08-21T09:05:05;28.30;91.30
21635;DHT22;10979;48.306;9.830;2022-08-21T09:07:40;28.90;91.80
21635;DHT22;10979;48.306;9.830;2022-08-21T09:10:36;28.10;93.00
21635;DHT22;10979;48.306;9.830;2022-08-21T09:13:25;28.10;92.80
21635;DHT22;10979;48.306;9.830;2022-08-21T09:16:08;28.30;93.50
21635;DHT22;10979;48.306;9.830;2022-08-21T09:26:31;28.70;83.10
21635;DHT22;10979;48.306;9.830;2022-08-21T09:29:01;29.20;81.50
21635;DHT22;10979;48.306;9.830;2022-08-21T09:31:33;29.60;88.50
21635;DHT22;10979;48.306;9.830;2022-08-21T09:34:05;29.10;86.20
21635;DHT22;10979;48.306;9.830;2022-08-21T09:36:45;29.70;88.80
21635;DHT22;10979;48.306;9.830;2022-08-21T09:39:22;30.10;82.70
21635;DHT22;10979;48.306;9.830;2022-08-21T09:41:56;28.70;82.10
21635;DHT22;10979;48.306;9.830;2022-08-21T09:44:30;28.70;81.50
21635;DHT22;10979;48.306;9.830;2022-08-21T09:46:56;28.70;88.20
21635;DHT22;10979;48.306;9.830;2022-08-21T09:49:34;27.50;82.40
21635;DHT22;10979;48.306;9.830;2022-08-21T09:52:02;25.80;87.70
21635;DHT22;10979;48.306;9.830;2022-08-21T09:54:37;25.10;81.10
21635;DHT22;10979;48.306;9.830;2022-08-21T09:57:29;25.00;90.70
21635;DHT22;10979;48.306;9.830;2022-08-21T10:00:31;25.20;90.00
21635;DHT22;10979;48.306;9.830;2022-08-21T10:03:16;24.40;92.10
21635;DHT22;10979;48.306;9.830;2022-08-21T10:06:03;24.80;92.90
21635;DHT22;10979;48.306;9.830;2022-08-21T10:08:32;25.00;91.50
21635;DHT22;10979;48.306;9.830;2022-08-21T10:11:17;25.10;89.20
21635;DHT22;10979;48.306;9.830;2022-08-21T10:13:53;24.70;90.40
21635;DHT22;10979;48.306;9.830;2022-08-21T10:16:47;24.80;89.30
21635;DHT22;10979;48.306;9.830;2022-08-21T10:19:32;24.70;86.50
21635;DHT22;10979;48.306;9.830;2022-08-21T10:22:27;24.70;87.90
21635;DHT22;10979;48.306;9.830;2022-08-21T10:25:14;24.70;91.10
21635;DHT22;10979;48.306;9.830;2022-08-21T10:27:49;24.60;90.50
21635;DHT22;10979;48.306;9.830;2022-08-21T10:30:21;24.80;85.40
21635;DHT22;10979;48.306;9.830;2022-08-21T10:35:41;25.30;87.90
21635;DHT22;10979;48.306;9.830;2022-08-21T10:38:28;25.20;83.50
21635;DHT22;10979;48.306;9.830;2022-08-21T10:41:24;24.90;85.70
21635;DHT22;10979;48.306;9.830;2022-08-21T10:44:09;24.90;90.50
21635;DHT22;10979;48.306;9.830;2022-08-21T10:47:08;24.30;86.10
21635;DHT22;10979;48.306;9.830;2022-08-21T10:55:14;24.70;88.60
21635;DHT22;10979;48.306;9.830;2022-08-21T11:00:16;24.30;90.40
21635;DHT22;10979;48.306;9.830;2022-08-21T11:05:50;24.30;86.20
21635;DHT22;10979;48.306;9.830;2022-08-21T11:08:23;24.20;88.30
21635;DHT22;10979;48.306;9.830;2022-08-21T11:11:04;24.40;88.70
21635;DHT22;10979;48.306;9.830;2022-08-21T11:13:47;24.00;87.10
21635;DHT22;10979;48.306;9.830;2022-08-21T11:16:21;24.50;87.50
21635;DHT22;10979;48.306;9.830;2022-08-21T11:19:22;24.40;84.60
21635;DHT22;10979;48.306;9.830;2022-08-21T11:22:06;24.10;84.90
21635;DHT22;10979;48.306;9.830;2022-08-21T11:25:03;24.30;84.70
21635;DHT22;10979;48.306;9.830;2022-08-21T11:28:31;24.50;82.10
21635;DHT22;10979;48.306;9.830;2022-08-21T11:31:05;24.70;88.70
21635;DHT22;10979;48.306;9.830;2022-08-21T11:33:46;24.40;86.60
21635;DHT22;10979;48.306;9.830;2022-08-21T11:39:15;24.90;88.00
21635;DHT22;10979;48.306;9.830;2022-08-21T11:52:48;24.30;87.30
21635;DHT22;10979;48.306;9.830;2022-08-21T11:55:39;24.30;89.60
21635;DHT22;10979;48.306;9.830;2022-08-21T11:58:30;24.10;82.60
21635;DHT22;10979;48.306;9.830;2022-08-21T12:01:03;24.40;87.20
21635;DHT22;10979;48.306;9.830;2022-08-21T12:03:33;24.70;91.00
21635;DHT22;10979;48.306;9.830;2022-08-21T12:06:08;24.40;85.20
21635;DHT22;10979;48.306;9.830;2022-08-21T12:08:36;24.20;78.40
21635;DHT22;10979;48.306;9.830;2022-08-21T12:16:35;24.50;82.60
21635;DHT22;10979;48.306;9.830;2022-08-21T12:19:10;24.10;81.90
21635;DHT22;10979;48.306;9.830;2022-08-21T12:24:43;24.20;84.80
21635;DHT22;10979;48.306;9.830;2022-08-21T12:27:26;24.70;83.20
21635;DHT22;10979;48.306;9.830;2022-08-21T12:30:00;24.60;85.80
21635;DHT22;10979;48.306;9.830;2022-08-21T12:32:43;24.40;87.60
21635;DHT22;10979;48.306;9.830;2022-08-21T12:35:21;24.40;81.80
21635;DHT22;10979;48.306;9.830;2022-08-21T12:38:15;24.70;85.90
21635;DHT22;10979;48.306;9.830;2022-08-21T12:40:49;24.80;86.70
21635;DHT22;10979;48.306;9.830;2022-08-21T12:43:27;24.50;83.80
21635;DHT22;10979;48.306;9.830;2022-08-21T12:45:54;24.50;85.40
21635;DHT22;10979;48.306;9.830;2022-08-21T12:48:35;24.60;80.40
21635;DHT22;10979;48.306;9.830;2022-08-21T12:51:23;24.70;82.20
21635;DHT22;10979;48.306;9.830;2022-08-21T12:53:56;25.30;84.20
21635;DHT22;10979;48.306;9.830;2022-08-21T12:56:27;25.00;78.50
21635;DHT22;10979;48.306;9.830;2022-08-21T12:59:05;24.80;80.90
21635;DHT22;10979;48.306;9.830;2022-08-21T13:01:38;24.80;80.70
21635;DHT22;10979;48.306;9.830;2022-08-21T13:04:12;25.00;83.70
21635;DHT22;10979;48.306;9.830;2022-08-21T13:06:45;24.30;74.60
21635;DHT22;10979;48.306;9.830;2022-08-21T13:09:16;24.30;80.00
21635;DHT22;10979;48.306;9.830;2022-08-21T13:11:45;24.60;78.40
21635;DHT22;10979;48.306;9.830;2022-08-21T13:16:54;24.60;79.00
21635;DHT22;10979;48.306;9.830;2022-08-21T13:19:20;24.20;72.70
21635;DHT22;10979;48.306;9.830;2022-08-21T13:21:45;24.40;77.60
21635;DHT22;10979;48.306;9.830;2022-08-21T13:26:53;24.40;73.70
21635;DHT22;10979;48.306;9.830;2022-08-21T13:29:21;24.50;77.70
21635;DHT22;10979;48.306;9.830;2022-08-21T13:31:53;24.80;77.90
21635;DHT22;10979;48.306;9.830;2022-08-21T13:34:24;24.50;76.50
21635;DHT22;10979;48.306;9.830;2022-08-21T13:36:57;24.20;74.80
21635;DHT22;10979;48.306;9.830;2022-08-21T13:39:24;24.50;75.60
21635;DHT22;10979;48.306;9.830;2022-08-21T13:41:53;24.50;76.50
21635;DHT22;10979;48.306;9.830;2022-08-21T13:46:59;24.60;77.70
21635;DHT22;10979;48.306;9.830;2022-08-21T13:49:35;24.60;77.60
21635;DHT22;10979;48.306;9.830;2022-08-21T13:52:02;24.60;75.50
21635;DHT22;10979;48.306;9.830;2022-08-21T13:54:37;24.90;79.80
21635;DHT22;10979;48.306;9.830;2022-08-21T13:57:03;24.80;76.60
21635;DHT22;10979;48.306;9.830;2022-08-21T13:59:33;24.90;76.80
21635;DHT22;10979;48.306;9.830;2022-08-21T14:02:01;24.50;72.70
21635;DHT22;10979;48.306;9.830;2022-08-21T14:04:36;24.60;76.00
21635;DHT22;10979;48.306;9.830;2022-08-21T14:07:15;24.50;75.30
21635;DHT22;10979;48.306;9.830;2022-08-21T14:09:43;24.50;74.70
21635;DHT22;10979;48.306;9.830;2022-08-21T14:12:26;24.50;72.40
21635;DHT22;10979;48.306;9.830;2022-08-21T14:14:55;24.40;73.60
21635;DHT22;10979;48.306;9.830;2022-08-21T14:17:38;24.20;73.70
21635;DHT22;10979;48.306;9.830;2022-08-21T14:20:09;24.10;71.40
21635;DHT22;10979;48.306;9.830;2022-08-21T14:22:47;24.30;74.90
21635;DHT22;10979;48.306;9.830;2022-08-21T14:30:41;24.40;75.40
21635;DHT22;10979;48.306;9.830;2022-08-21T14:33:12;24.40;73.80
21635;DHT22;10979;48.306;9.830;2022-08-21T14:35:38;24.40;78.10
21635;DHT22;10979;48.306;9.830;2022-08-21T14:38:21;24.40;79.90
21635;DHT22;10979;48.306;9.830;2022-08-21T14:40:51;24.30;76.40
21635;DHT22;10979;48.306;9.830;2022-08-21T14:43:18;24.30;75.00
21635;DHT22;10979;48.306;9.830;2022-08-21T14:45:44;24.10;75.10
21635;DHT22;10979;48.306;9.830;2022-08-21T14:48:10;24.10;77.60
21635;DHT22;10979;48.306;9.830;2022-08-21T14:50:36;24.40;75.50
21635;DHT22;10979;48.306;9.830;2022-08-21T14:53:03;24.20;74.30
21635;DHT22;10979;48.306;9.830;2022-08-21T14:55:30;24.20;77.10
21635;DHT22;10979;48.306;9.830;2022-08-21T14:58:16;24.20;76.70
21635;DHT22;10979;48.306;9.830;2022-08-21T15:00:42;24.10;73.20
21635;DHT22;10979;48.306;9.830;2022-08-21T15:03:08;23.80;72.80
21635;DHT22;10979;48.306;9.830;2022-08-21T15:05:33;24.00;77.00
21635;DHT22;10979;48.306;9.830;2022-08-21T15:07:59;24.20;75.20
21635;DHT22;10979;48.306;9.830;2022-08-21T15:10:25;24.30;75.50
21635;DHT22;10979;48.306;9.830;2022-08-21T15:12:51;24.20;74.50
21635;DHT22;10979;48.306;9.830;2022-08-21T15:15:16;24.10;74.80
21635;DHT22;10979;48.306;9.830;2022-08-21T15:17:42;24.20;71.50
21635;DHT22;10979;48.306;9.830;2022-08-21T15:20:08;24.30;72.90
21635;DHT22;10979;48.306;9.830;2022-08-21T15:22:34;24.10;71.80
21635;DHT22;10979;48.306;9.830;2022-08-21T15:25:00;24.20;71.60
21635;DHT22;10979;48.306;9.830;2022-08-21T15:27:27;24.10;71.50
21635;DHT22;10979;48.306;9.830;2022-08-21T15:29:56;24.20;73.10
21635;DHT22;10979;48.306;9.830;2022-08-21T15:32:25;24.10;75.50
21635;DHT22;10979;48.306;9.830;2022-08-21T15:34:55;24.00;71.80
21635;DHT22;10979;48.306;9.830;2022-08-21T15:37:22;24.00;73.30
21635;DHT22;10979;48.306;9.830;2022-08-21T15:39:49;24.00;70.40
21635;DHT22;10979;48.306;9.830;2022-08-21T15:42:15;23.80;76.10
21635;DHT22;10979;48.306;9.830;2022-08-21T15:44:42;23.80;74.20
21635;DHT22;10979;48.306;9.830;2022-08-21T15:47:21;23.70;72.40
21635;DHT22;10979;48.306;9.830;2022-08-21T15:49:47;23.80;71.00
21635;DHT22;10979;48.306;9.830;2022-08-21T15:52:17;23.80;74.70
21635;DHT22;10979;48.306;9.830;2022-08-21T15:54:42;23.90;74.00
21635;DHT22;10979;48.306;9.830;2022-08-21T15:57:10;23.80;73.30
21635;DHT22;10979;48.306;9.830;2022-08-21T15:59:47;23.80;73.90
21635;DHT22;10979;48.306;9.830;2022-08-21T16:02:26;23.80;73.70
21635;DHT22;10979;48.306;9.830;2022-08-21T16:04:53;23.80;74.70
21635;DHT22;10979;48.306;9.830;2022-08-21T16:07:19;23.70;75.40
21635;DHT22;10979;48.306;9.830;2022-08-21T16:09:45;23.70;74.60
21635;DHT22;10979;48.306;9.830;2022-08-21T16:12:22;23.70;73.10
21635;DHT22;10979;48.306;9.830;2022-08-21T16:14:51;23.70;74.00
21635;DHT22;10979;48.306;9.830;2022-08-21T16:17:16;23.70;74.60
21635;DHT22;10979;48.306;9.830;2022-08-21T16:19:42;23.60;77.60
21635;DHT22;10979;48.306;9.830;2022-08-21T16:22:08;23.60;74.80
21635;DHT22;10979;48.306;9.830;2022-08-21T16:24:33;23.30;80.80
21635;DHT22;10979;48.306;9.830;2022-08-21T16:27:01;23.40;77.00
21635;DHT22;10979;48.306;9.830;2022-08-21T16:29:32;23.50;77.10
21635;DHT22;10979;48.306;9.830;2022-08-21T16:31:59;23.40;74.00
21635;DHT22;10979;48.306;9.830;2022-08-21T16:34:25;23.40;74.70
21635;DHT22;10979;48.306;9.830;2022-08-21T16:36:53;23.40;76.80
21635;DHT22;10979;48.306;9.830;2022-08-21T16:39:18;23.30;72.40
21635;DHT22;10979;48.306;9.830;2022-08-21T16:41:44;23.20;75.30
21635;DHT22;10979;48.306;9.830;2022-08-21T16:44:10;23.20;74.80
21635;DHT22;10979;48.306;9.830;2022-08-21T16:46:39;23.30;76.20